Time;durP1;ratioP1;P1;durP2;ratioP2;P2;SDS_P1;SDS_P2;PMS_P1;PMS_P2;Temp;Humidity;BMP_temperature;BMP_pressure;BME280_temperature;BME280_humidity;BME280_pressure;Samples;Min_cycle;Max_cycle;Signal;HPM_P1;HPM_P2
2023/07/18 00:01:59;;;;;;;11.05;8.70;;;28.30;99.90;;;;;;5033691;28;20032;-67
2023/07/18 00:04:27;;;;;;;12.00;8.50;;;28.30;99.90;;;;;;5032128;28;20025;-67
2023/07/18 00:06:54;;;;;;;13.02;8.50;;;28.30;99.90;;;;;;5033911;28;20426;-67
2023/07/18 00:09:21;;;;;;;11.05;8.48;;;28.30;99.90;;;;;;5031298;28;20037;-67
2023/07/18 00:11:47;;;;;;;14.32;8.70;;;28.20;99.90;;;;;;5033801;28;20083;-67
2023/07/18 00:14:13;;;;;;;12.95;8.38;;;28.30;99.90;;;;;;5033613;28;20021;-67
2023/07/18 00:16:39;;;;;;;10.88;8.05;;;28.30;99.90;;;;;;5031931;28;20340;-67
2023/07/18 00:19:05;;;;;;;13.05;8.30;;;28.30;99.90;;;;;;5033581;28;20025;-67
2023/07/18 00:21:31;;;;;;;9.02;8.20;;;28.30;99.90;;;;;;5027120;28;20017;-67
2023/07/18 00:23:59;;;;;;;9.50;8.55;;;28.30;99.90;;;;;;5033665;28;20025;-67
2023/07/18 00:26:25;;;;;;;9.65;7.57;;;28.30;99.90;;;;;;5033408;28;20023;-67
2023/07/18 00:28:53;;;;;;;9.25;8.05;;;28.20;99.90;;;;;;5030530;28;20037;-67
2023/07/18 00:31:18;;;;;;;10.07;8.25;;;28.20;99.90;;;;;;5033404;28;20079;-67
2023/07/18 00:33:44;;;;;;;13.77;8.95;;;28.10;99.90;;;;;;5030635;28;20029;-67
2023/07/18 00:36:10;;;;;;;13.23;8.80;;;28.30;99.90;;;;;;5043992;28;20017;-67
2023/07/18 00:38:36;;;;;;;13.15;8.20;;;28.30;99.90;;;;;;5033132;28;20097;-67
2023/07/18 00:41:04;;;;;;;17.08;8.60;;;28.40;99.90;;;;;;5032721;28;20289;-67
2023/07/18 00:43:34;;;;;;;12.52;8.35;;;28.40;99.90;;;;;;5021479;28;20505;-67
2023/07/18 00:46:01;;;;;;;13.25;9.05;;;28.30;99.90;;;;;;5030256;28;20045;-67
2023/07/18 00:48:33;;;;;;;12.82;7.63;;;28.40;99.90;;;;;;5032504;28;20025;-67
2023/07/18 00:51:04;;;;;;;11.38;9.07;;;28.20;99.90;;;;;;5029137;28;20060;-67
2023/07/18 00:53:32;;;;;;;14.25;9.10;;;28.20;99.90;;;;;;5031632;28;20021;-67
2023/07/18 00:55:58;;;;;;;10.05;8.57;;;28.30;99.90;;;;;;5032984;28;20028;-67
2023/07/18 00:58:24;;;;;;;12.23;9.05;;;28.20;99.90;;;;;;5029942;28;20111;-67
2023/07/18 01:00:50;;;;;;;15.30;9.00;;;28.20;99.90;;;;;;5032976;28;20034;-67
2023/07/18 01:03:17;;;;;;;11.25;9.15;;;28.20;99.90;;;;;;5030770;28;20455;-67
2023/07/18 01:05:43;;;;;;;9.60;8.70;;;28.30;99.90;;;;;;5023034;28;20022;-67
2023/07/18 01:08:09;;;;;;;14.15;9.32;;;28.20;99.90;;;;;;5032665;28;20030;-67
2023/07/18 01:10:37;;;;;;;11.25;8.40;;;28.20;99.90;;;;;;5026961;28;20092;-67
2023/07/18 01:13:03;;;;;;;14.85;8.88;;;28.20;99.90;;;;;;5032720;28;20376;-67
2023/07/18 01:15:34;;;;;;;12.30;9.95;;;28.20;1.00;;;;;;5030158;28;20032;-67
2023/07/18 01:18:05;;;;;;;13.05;9.45;;;28.20;1.00;;;;;;5022084;28;20127;-67
2023/07/18 01:20:33;;;;;;;15.68;10.45;;;28.20;1.00;;;;;;5032948;28;20021;-67
2023/07/18 01:22:59;;;;;;;14.20;9.88;;;28.20;1.00;;;;;;5026153;28;20029;-67
2023/07/18 01:25:26;;;;;;;16.13;10.05;;;28.20;1.00;;;;;;5031367;28;20120;-67
2023/07/18 01:27:54;;;;;;;15.90;9.88;;;28.20;1.00;;;;;;5027928;28;20025;-67
2023/07/18 01:30:22;;;;;;;11.35;8.88;;;28.20;1.00;;;;;;5031912;28;20064;-67
2023/07/18 01:32:48;;;;;;;11.75;9.57;;;28.20;1.00;;;;;;5029040;28;20038;-67
2023/07/18 01:35:17;;;;;;;15.80;10.20;;;28.10;1.00;;;;;;5028770;28;20036;-67
2023/07/18 01:37:46;;;;;;;12.35;10.23;;;28.10;1.00;;;;;;5032041;28;20049;-67
2023/07/18 01:40:14;;;;;;;11.10;9.60;;;28.10;1.00;;;;;;5029673;28;20030;-67
2023/07/18 01:42:40;;;;;;;13.38;10.48;;;28.20;1.00;;;;;;5032729;28;20434;-67
2023/07/18 01:45:10;;;;;;;13.23;10.00;;;28.10;1.00;;;;;;5031175;28;20451;-67
2023/07/18 01:47:40;;;;;;;13.82;9.73;;;28.10;1.00;;;;;;5029607;28;20105;-67
2023/07/18 01:50:07;;;;;;;14.18;9.98;;;28.20;1.00;;;;;;5032397;28;20423;-67
2023/07/18 01:52:34;;;;;;;11.20;9.23;;;28.10;1.00;;;;;;5029963;28;20025;-67
2023/07/18 01:55:01;;;;;;;13.23;9.98;;;28.00;1.00;;;;;;5032438;28;20180;-67
2023/07/18 01:57:35;;;;;;;12.02;10.65;;;28.20;1.00;;;;;;5031187;28;20014;-67
2023/07/18 02:00:02;;;;;;;11.55;10.02;;;28.10;1.00;;;;;;5033620;28;20048;-67
2023/07/18 02:02:28;;;;;;;14.55;10.32;;;28.10;1.00;;;;;;5036261;28;20052;-68
2023/07/18 02:04:55;;;;;;;13.57;10.15;;;28.10;1.00;;;;;;5041005;28;20463;-67
2023/07/18 02:07:31;;;;;;;14.35;9.80;;;28.10;1.00;;;;;;5029884;28;20033;-67
2023/07/18 02:09:57;;;;;;;11.98;9.82;;;28.00;1.00;;;;;;5027762;28;20111;-67
2023/07/18 02:12:23;;;;;;;12.07;9.55;;;28.20;1.00;;;;;;5029883;28;20067;-67
2023/07/18 02:14:49;;;;;;;15.32;10.02;;;28.00;1.00;;;;;;5034782;28;20068;-67
2023/07/18 02:17:14;;;;;;;12.55;10.05;;;28.10;1.00;;;;;;5033179;28;20021;-67
2023/07/18 02:19:40;;;;;;;11.52;9.63;;;28.00;1.00;;;;;;5036245;28;20029;-67
2023/07/18 02:22:06;;;;;;;12.18;9.25;;;28.10;1.00;;;;;;5031703;28;20029;-67
2023/07/18 02:24:32;;;;;;;12.98;10.10;;;28.00;1.00;;;;;;5029393;28;20048;-67
2023/07/18 02:26:58;;;;;;;13.13;9.45;;;28.10;1.00;;;;;;5029961;28;20021;-67
2023/07/18 02:29:24;;;;;;;12.57;10.38;;;28.20;1.00;;;;;;5035394;28;20045;-67
2023/07/18 02:31:50;;;;;;;15.70;10.48;;;28.00;1.00;;;;;;5035365;28;20083;-67
2023/07/18 02:34:16;;;;;;;12.07;10.10;;;27.90;1.00;;;;;;5034515;28;20399;-67
2023/07/18 02:36:42;;;;;;;16.42;10.05;;;28.00;1.00;;;;;;5040453;28;20021;-67
2023/07/18 02:39:08;;;;;;;14.13;9.55;;;28.00;1.00;;;;;;5034850;28;20048;-67
2023/07/18 02:41:38;;;;;;;11.05;9.93;;;28.10;1.00;;;;;;5036505;28;20024;-67
2023/07/18 02:44:04;;;;;;;15.57;10.10;;;27.90;1.00;;;;;;5026213;28;20072;-67
2023/07/18 02:46:30;;;;;;;13.07;10.07;;;28.00;1.00;;;;;;5033023;28;20518;-67
2023/07/18 02:48:56;;;;;;;12.63;11.18;;;28.00;1.00;;;;;;5034629;28;20041;-67
2023/07/18 02:51:22;;;;;;;18.02;10.52;;;27.90;1.00;;;;;;5035105;28;20383;-67
2023/07/18 02:53:51;;;;;;;13.13;10.20;;;27.90;1.00;;;;;;5032197;28;20115;-67
2023/07/18 02:56:16;;;;;;;13.30;11.25;;;28.10;1.00;;;;;;5033750;28;20018;-67
2023/07/18 02:58:42;;;;;;;16.00;10.90;;;28.10;1.00;;;;;;5032492;28;20059;-67
2023/07/18 03:01:08;;;;;;;16.52;10.93;;;28.10;1.00;;;;;;5033909;28;20025;-67
2023/07/18 03:03:38;;;;;;;11.23;9.82;;;27.90;1.00;;;;;;5035143;28;20049;-67
2023/07/18 03:06:04;;;;;;;19.02;11.52;;;28.00;1.00;;;;;;5034752;28;20356;-67
2023/07/18 03:08:32;;;;;;;16.15;10.90;;;27.80;1.00;;;;;;5043995;28;20018;-67
2023/07/18 03:11:01;;;;;;;15.35;10.88;;;27.80;1.00;;;;;;5032269;28;20041;-67
2023/07/18 03:13:27;;;;;;;15.25;11.23;;;27.90;1.00;;;;;;5034537;28;20025;-67
2023/07/18 03:15:54;;;;;;;14.02;10.85;;;27.80;1.00;;;;;;5020615;28;20025;-68
2023/07/18 03:18:21;;;;;;;12.18;10.85;;;27.90;1.00;;;;;;5026425;28;20439;-67
2023/07/18 03:20:47;;;;;;;17.67;11.55;;;27.80;1.00;;;;;;5033862;28;20494;-68
2023/07/18 03:23:12;;;;;;;11.90;9.88;;;27.70;1.00;;;;;;5030962;28;20064;-67
2023/07/18 03:25:38;;;;;;;11.85;10.60;;;27.70;1.00;;;;;;5034154;28;20033;-68
2023/07/18 03:28:04;;;;;;;16.00;11.15;;;27.50;1.00;;;;;;5031728;28;20021;-67
2023/07/18 03:30:30;;;;;;;12.43;11.13;;;27.70;1.00;;;;;;5052054;28;20030;-67
2023/07/18 03:32:56;;;;;;;11.82;10.63;;;27.70;1.00;;;;;;5033691;28;20032;-67
2023/07/18 03:35:22;;;;;;;13.02;11.23;;;27.80;1.00;;;;;;5031871;28;20079;-67
2023/07/18 03:37:48;;;;;;;14.60;12.45;;;27.80;1.00;;;;;;5035662;28;20112;-68
2023/07/18 03:40:16;;;;;;;17.55;12.18;;;27.70;1.00;;;;;;5034200;28;20033;-68
2023/07/18 03:42:43;;;;;;;18.10;12.30;;;27.80;1.00;;;;;;5031418;28;20383;-68
2023/07/18 03:45:10;;;;;;;15.98;11.48;;;27.80;1.00;;;;;;5034305;28;20032;-67
2023/07/18 03:47:37;;;;;;;16.90;11.35;;;27.80;1.00;;;;;;5026909;28;20034;-67
2023/07/18 03:50:03;;;;;;;14.57;12.13;;;27.80;1.00;;;;;;5033753;28;20091;-67
2023/07/18 03:52:29;;;;;;;14.60;11.27;;;27.90;1.00;;;;;;5033939;28;20025;-68
2023/07/18 03:54:54;;;;;;;15.65;12.57;;;27.90;1.00;;;;;;5031151;28;20104;-67
2023/07/18 03:57:20;;;;;;;13.80;11.93;;;27.80;1.00;;;;;;5033760;28;20056;-67
2023/07/18 03:59:45;;;;;;;18.50;13.05;;;27.80;1.00;;;;;;5030259;28;20050;-67
2023/07/18 04:02:14;;;;;;;17.25;12.60;;;27.50;1.00;;;;;;5033601;28;20026;-68
2023/07/18 04:04:41;;;;;;;14.45;13.00;;;27.60;1.00;;;;;;5032368;28;20458;-68
2023/07/18 04:07:07;;;;;;;20.20;12.52;;;27.80;1.00;;;;;;5030701;28;20041;-67
2023/07/18 04:09:34;;;;;;;16.38;13.98;;;27.80;1.00;;;;;;5033761;28;20037;-67
2023/07/18 04:12:00;;;;;;;19.38;13.18;;;27.70;1.00;;;;;;5030537;28;20500;-67
2023/07/18 04:14:26;;;;;;;18.65;14.05;;;27.70;1.00;;;;;;5033575;28;20022;-67
2023/07/18 04:16:52;;;;;;;14.15;12.65;;;27.70;1.00;;;;;;5031838;28;20052;-67
2023/07/18 04:19:18;;;;;;;17.65;13.45;;;27.80;1.00;;;;;;5032388;28;20021;-67
2023/07/18 04:21:44;;;;;;;17.90;13.73;;;27.70;1.00;;;;;;5032856;28;20501;-67
2023/07/18 04:24:10;;;;;;;17.00;13.43;;;27.80;1.00;;;;;;5030573;28;20014;-67
2023/07/18 04:26:35;;;;;;;16.67;13.15;;;27.70;1.00;;;;;;5033064;28;20029;-67
2023/07/18 04:29:03;;;;;;;16.67;13.05;;;27.80;1.00;;;;;;5031173;28;20029;-67
2023/07/18 04:31:29;;;;;;;14.57;12.93;;;27.80;1.00;;;;;;5018096;28;20034;-67
2023/07/18 04:33:54;;;;;;;17.98;13.10;;;27.80;1.00;;;;;;5031721;28;20406;-67
2023/07/18 04:36:20;;;;;;;15.25;12.73;;;27.80;1.00;;;;;;5034222;28;20470;-67
2023/07/18 04:38:46;;;;;;;17.95;13.77;;;27.80;1.00;;;;;;5036798;28;20030;-67
2023/07/18 04:41:12;;;;;;;18.98;14.02;;;27.80;1.00;;;;;;5030709;28;20140;-67
2023/07/18 04:43:37;;;;;;;20.30;13.18;;;27.70;1.00;;;;;;5037749;28;20025;-67
2023/07/18 04:46:04;;;;;;;17.60;13.98;;;27.70;1.00;;;;;;5033078;28;20021;-67
2023/07/18 04:48:30;;;;;;;18.40;13.90;;;27.70;1.00;;;;;;5031745;28;20083;-67
2023/07/18 04:50:59;;;;;;;16.20;13.57;;;27.80;1.00;;;;;;5020698;28;20029;-67
2023/07/18 04:53:29;;;;;;;14.30;12.80;;;27.70;1.00;;;;;;5033101;28;20013;-67
2023/07/18 04:55:55;;;;;;;14.82;13.40;;;27.80;1.00;;;;;;5030334;28;20029;-67
2023/07/18 04:58:26;;;;;;;16.92;13.98;;;27.90;1.00;;;;;;5031458;28;20514;-67
2023/07/18 05:00:56;;;;;;;17.58;13.40;;;27.80;1.00;;;;;;5028406;28;20033;-68
2023/07/18 05:03:23;;;;;;;17.08;13.52;;;27.70;1.00;;;;;;5021710;28;20479;-67
2023/07/18 05:05:49;;;;;;;16.13;13.25;;;27.70;1.00;;;;;;5031630;28;20084;-67
2023/07/18 05:08:16;;;;;;;16.50;13.73;;;27.80;1.00;;;;;;5061318;28;20490;-67
2023/07/18 05:10:42;;;;;;;13.95;12.45;;;27.90;1.00;;;;;;5032374;28;20128;-67
2023/07/18 05:13:08;;;;;;;17.38;13.15;;;27.90;1.00;;;;;;5029642;28;20101;-68
2023/07/18 05:15:34;;;;;;;17.52;13.48;;;27.90;1.00;;;;;;5032584;28;20072;-68
2023/07/18 05:18:00;;;;;;;15.73;12.38;;;27.90;1.00;;;;;;5030554;28;20025;-68
2023/07/18 05:20:26;;;;;;;14.63;12.40;;;27.90;1.00;;;;;;5032176;28;20034;-68
2023/07/18 05:22:52;;;;;;;15.73;12.40;;;27.90;1.00;;;;;;5032877;28;20021;-68
2023/07/18 05:25:18;;;;;;;16.08;13.40;;;27.90;1.00;;;;;;5028791;28;20167;-69
2023/07/18 05:27:44;;;;;;;17.00;11.80;;;28.00;1.00;;;;;;5032533;28;20034;-69
2023/07/18 05:30:16;;;;;;;13.90;11.30;;;28.00;1.00;;;;;;5016853;28;20049;-69
2023/07/18 05:32:42;;;;;;;21.10;12.57;;;28.00;1.00;;;;;;5043808;28;20542;-70
2023/07/18 05:35:13;;;;;;;15.57;11.75;;;28.00;1.00;;;;;;5036492;28;20025;-72
2023/07/18 05:37:40;;;;;;;13.13;10.32;;;27.90;1.00;;;;;;5033327;28;20022;-72
2023/07/18 05:40:09;;;;;;;14.98;11.93;;;28.10;1.00;;;;;;5036161;28;20410;-72
2023/07/18 05:42:38;;;;;;;17.00;12.20;;;28.10;1.00;;;;;;5031601;28;20095;-72
2023/07/18 05:45:05;;;;;;;16.25;12.93;;;28.00;1.00;;;;;;5032857;28;20491;-72
2023/07/18 05:47:31;;;;;;;13.45;11.10;;;28.10;1.00;;;;;;5035924;28;20382;-72
2023/07/18 05:49:57;;;;;;;16.20;11.80;;;28.00;1.00;;;;;;5023012;28;20045;-72
2023/07/18 05:52:22;;;;;;;11.90;10.65;;;28.10;1.00;;;;;;5036182;28;20245;-71
2023/07/18 05:54:49;;;;;;;12.95;11.55;;;28.30;1.00;;;;;;5034446;28;20364;-71
2023/07/18 05:57:15;;;;;;;15.85;13.25;;;28.40;1.00;;;;;;5035827;28;20061;-71
2023/07/18 05:59:41;;;;;;;19.63;12.45;;;28.30;1.00;;;;;;5034144;28;20096;-70
2023/07/18 06:02:07;;;;;;;13.98;9.43;;;28.20;1.00;;;;;;5035075;28;20025;-71
2023/07/18 06:04:34;;;;;;;15.48;12.02;;;28.10;1.00;;;;;;5036117;28;20025;-70
2023/07/18 06:07:00;;;;;;;19.05;11.65;;;28.10;1.00;;;;;;5032945;28;20025;-70
2023/07/18 06:09:25;;;;;;;19.90;12.27;;;28.30;1.00;;;;;;5035419;28;20037;-70
2023/07/18 06:11:52;;;;;;;14.57;12.23;;;28.20;1.00;;;;;;5021905;28;20030;-70
2023/07/18 06:14:17;;;;;;;15.05;13.20;;;28.20;1.00;;;;;;5035087;28;20022;-68
2023/07/18 06:16:43;;;;;;;15.23;12.32;;;28.00;1.00;;;;;;5033390;28;20502;-68
2023/07/18 06:19:09;;;;;;;18.13;12.23;;;28.20;1.00;;;;;;5032705;28;20030;-75
2023/07/18 06:21:34;;;;;;;17.50;12.60;;;28.30;1.00;;;;;;5034543;28;20029;-70
2023/07/18 06:24:00;;;;;;;16.35;13.23;;;28.30;1.00;;;;;;5028360;28;20032;-71
2023/07/18 06:26:26;;;;;;;14.95;12.93;;;28.30;1.00;;;;;;5033065;28;20040;-74
2023/07/18 06:28:52;;;;;;;18.05;12.88;;;28.30;1.00;;;;;;5035603;28;20109;-71
2023/07/18 06:31:18;;;;;;;14.60;13.10;;;28.40;1.00;;;;;;5027905;28;20021;-70
2023/07/18 06:33:45;;;;;;;17.38;11.90;;;28.40;1.00;;;;;;5035311;28;20029;-77
2023/07/18 06:36:12;;;;;;;20.13;12.80;;;28.50;1.00;;;;;;5034434;28;20494;-73
2023/07/18 06:38:38;;;;;;;16.95;12.18;;;28.50;1.00;;;;;;5035430;28;20509;-81
2023/07/18 06:41:04;;;;;;;14.88;11.43;;;28.50;1.00;;;;;;5029113;28;20112;-80
2023/07/18 06:43:30;;;;;;;14.30;10.48;;;28.40;1.00;;;;;;5035644;28;20113;-73
2023/07/18 06:45:55;;;;;;;16.42;11.68;;;28.90;1.00;;;;;;5025786;28;20124;-66
2023/07/18 06:48:21;;;;;;;17.35;11.20;;;29.10;1.00;;;;;;5028327;28;20127;-69
2023/07/18 06:50:49;;;;;;;16.58;11.40;;;29.20;1.00;;;;;;5033810;28;20045;-69
2023/07/18 06:53:19;;;;;;;12.18;9.88;;;28.90;1.00;;;;;;5030435;28;20053;-69
2023/07/18 06:55:49;;;;;;;15.38;10.73;;;29.20;1.00;;;;;;5023997;28;20025;-70
2023/07/18 06:58:18;;;;;;;13.18;9.50;;;29.80;1.00;;;;;;5031476;28;20041;-76
2023/07/18 07:00:45;;;;;;;17.55;10.20;;;30.10;1.00;;;;;;5033289;28;20057;-68
2023/07/18 07:03:13;;;;;;;15.57;10.25;;;30.50;99.90;;;;;;5028264;28;20040;-69
2023/07/18 07:05:42;;;;;;;12.70;9.55;;;30.30;99.90;;;;;;5032780;28;20025;-76
2023/07/18 07:08:13;;;;;;;15.25;9.05;;;30.90;99.90;;;;;;5027353;28;20040;-68
2023/07/18 07:10:40;;;;;;;13.90;9.25;;;31.30;99.90;;;;;;5033322;28;20431;-73
2023/07/18 07:13:07;;;;;;;13.85;8.48;;;30.60;99.90;;;;;;5031011;28;20048;-69
2023/07/18 07:15:33;;;;;;;17.67;9.40;;;31.20;99.90;;;;;;5029092;28;20022;-71
2023/07/18 07:17:59;;;;;;;12.60;8.82;;;30.80;99.90;;;;;;5030510;28;20070;-71
2023/07/18 07:20:25;;;;;;;12.48;11.00;;;30.30;99.90;;;;;;5031027;28;20022;-71
2023/07/18 07:22:54;;;;;;;18.25;9.07;;;30.30;99.90;;;;;;5033215;28;20037;-71
2023/07/18 07:25:20;;;;;;;13.18;8.77;;;30.20;99.90;;;;;;5030344;28;20127;-79
2023/07/18 07:27:46;;;;;;;15.75;9.77;;;31.00;99.90;;;;;;5029771;28;20029;-73
2023/07/18 07:30:17;;;;;;;15.57;9.23;;;31.40;99.90;;;;;;5029093;28;20394;-76
2023/07/18 07:32:53;;;;;;;14.20;9.73;;;31.60;99.90;;;;;;5021643;28;20033;-71
2023/07/18 07:35:19;;;;;;;14.02;10.82;;;31.90;99.90;;;;;;5023077;28;20036;-78
2023/07/18 07:37:46;;;;;;;12.27;10.38;;;32.30;99.90;;;;;;5023821;28;20026;-75
2023/07/18 07:40:12;;;;;;;13.88;9.88;;;31.80;99.90;;;;;;5029790;28;20035;-73
2023/07/18 07:42:39;;;;;;;12.02;8.60;;;31.70;99.90;;;;;;5064231;28;20120;-67
2023/07/18 07:45:06;;;;;;;12.68;9.38;;;31.50;99.90;;;;;;5029090;28;20065;-67
2023/07/18 07:47:31;;;;;;;11.60;8.55;;;31.90;99.90;;;;;;5028953;28;20026;-66
2023/07/18 07:49:57;;;;;;;12.20;9.93;;;32.20;99.90;;;;;;5032725;28;20048;-66
2023/07/18 07:52:23;;;;;;;13.05;9.30;;;32.30;99.90;;;;;;5033321;28;20018;-67
2023/07/18 07:54:48;;;;;;;12.02;9.40;;;32.60;99.90;;;;;;5028448;28;20037;-59
2023/07/18 07:57:15;;;;;;;13.57;10.25;;;31.50;99.90;;;;;;5030380;28;20089;-59
2023/07/18 07:59:42;;;;;;;13.32;9.82;;;31.60;99.90;;;;;;5024187;28;20049;-59
2023/07/18 08:02:08;;;;;;;18.02;11.02;;;31.50;99.90;;;;;;5029436;28;20057;-59
2023/07/18 08:04:34;;;;;;;14.55;10.32;;;31.50;99.90;;;;;;5026157;28;20065;-59
2023/07/18 08:07:00;;;;;;;11.82;9.13;;;31.30;99.90;;;;;;5024489;28;20025;-59
2023/07/18 08:09:25;;;;;;;11.98;10.57;;;31.30;99.90;;;;;;5028990;28;20506;-59
2023/07/18 08:11:51;;;;;;;13.50;10.35;;;31.30;99.90;;;;;;5028594;28;20486;-60
2023/07/18 08:14:17;;;;;;;12.02;10.02;;;31.10;99.90;;;;;;5027605;28;20471;-60
2023/07/18 08:16:43;;;;;;;14.35;9.65;;;30.90;99.90;;;;;;5028662;28;20105;-60
2023/07/18 08:19:09;;;;;;;13.30;9.63;;;31.20;99.90;;;;;;5026545;28;20029;-62
2023/07/18 08:21:35;;;;;;;13.73;10.18;;;31.10;99.90;;;;;;5031366;28;20090;-61
2023/07/18 08:24:01;;;;;;;11.63;10.43;;;31.40;99.90;;;;;;5023487;28;20160;-61
2023/07/18 08:26:26;;;;;;;12.10;9.68;;;31.40;99.90;;;;;;5022607;28;20068;-61
2023/07/18 08:28:52;;;;;;;12.32;10.23;;;31.00;99.90;;;;;;5031579;28;20030;-57
2023/07/18 08:31:19;;;;;;;12.43;11.10;;;30.90;99.90;;;;;;5032162;28;20055;-58
2023/07/18 08:33:45;;;;;;;14.13;10.98;;;30.90;99.90;;;;;;5024201;28;20029;-58
2023/07/18 08:36:11;;;;;;;17.23;11.25;;;30.80;99.90;;;;;;5026220;28;20056;-58
2023/07/18 08:38:37;;;;;;;14.13;10.15;;;31.00;99.90;;;;;;5027289;28;20155;-59
2023/07/18 08:41:03;;;;;;;13.18;9.82;;;30.70;99.90;;;;;;5023263;28;20400;-58
2023/07/18 08:43:31;;;;;;;13.63;9.93;;;30.80;99.90;;;;;;5033096;28;20459;-58
2023/07/18 08:45:57;;;;;;;12.15;10.05;;;30.90;99.90;;;;;;5033561;28;20454;-59
2023/07/18 08:48:23;;;;;;;11.75;10.27;;;31.20;99.90;;;;;;5033579;28;20022;-59
2023/07/18 08:50:53;;;;;;;15.65;10.35;;;31.10;99.90;;;;;;5031847;28;20091;-59
2023/07/18 08:53:19;;;;;;;12.80;9.48;;;31.40;99.90;;;;;;5032409;28;20498;-58
2023/07/18 08:55:45;;;;;;;13.57;9.00;;;31.40;99.90;;;;;;5032997;28;20041;-58
2023/07/18 08:58:11;;;;;;;12.32;9.60;;;31.60;99.90;;;;;;5032853;28;20488;-59
2023/07/18 09:00:38;;;;;;;13.77;12.15;;;31.50;99.90;;;;;;5033266;28;20100;-59
2023/07/18 09:03:04;;;;;;;12.10;9.65;;;31.70;99.90;;;;;;5031777;28;20042;-58
2023/07/18 09:05:32;;;;;;;10.70;9.60;;;31.70;99.90;;;;;;5028763;28;20038;-59
2023/07/18 09:07:59;;;;;;;16.80;10.27;;;31.40;99.90;;;;;;5027056;28;20424;-59
2023/07/18 09:10:25;;;;;;;11.60;8.82;;;31.70;99.90;;;;;;5032666;28;20068;-59
2023/07/18 09:12:52;;;;;;;10.95;9.65;;;32.00;99.90;;;;;;5031859;28;20094;-59
2023/07/18 09:15:21;;;;;;;11.30;9.30;;;31.70;99.90;;;;;;5032874;28;20099;-59
2023/07/18 09:18:00;;;;;;;12.18;10.18;;;31.50;99.90;;;;;;5018942;28;20112;-59
2023/07/18 09:20:27;;;;;;;13.25;9.65;;;31.60;99.90;;;;;;5032919;28;20411;-59
2023/07/18 09:23:02;;;;;;;13.00;10.02;;;32.00;99.90;;;;;;5028956;28;20025;-58
2023/07/18 09:25:29;;;;;;;11.90;9.10;;;31.60;99.90;;;;;;5031571;28;20387;-58
2023/07/18 09:27:55;;;;;;;11.90;9.80;;;31.50;99.90;;;;;;5032783;28;20061;-59
2023/07/18 09:30:37;;;;;;;14.75;10.48;;;31.80;99.90;;;;;;5032448;28;20072;-58
2023/07/18 09:33:06;;;;;;;13.25;8.45;;;31.50;99.90;;;;;;5032902;28;20029;-58
2023/07/18 09:35:50;;;;;;;10.15;9.05;;;31.80;99.90;;;;;;5032709;28;20028;-59
2023/07/18 09:38:16;;;;;;;11.65;9.07;;;32.10;99.90;;;;;;5032690;28;20044;-59
2023/07/18 09:40:42;;;;;;;11.73;9.40;;;31.90;99.90;;;;;;5032677;28;20026;-59
2023/07/18 09:43:08;;;;;;;10.70;9.70;;;31.80;99.90;;;;;;5032647;28;20037;-59
2023/07/18 09:45:35;;;;;;;17.00;11.07;;;32.00;99.90;;;;;;5032707;28;20021;-58
2023/07/18 09:48:03;;;;;;;10.27;9.25;;;31.90;99.90;;;;;;5032384;28;20471;-58
2023/07/18 09:50:31;;;;;;;10.50;9.30;;;32.50;99.90;;;;;;5032773;28;20395;-58
2023/07/18 09:52:59;;;;;;;10.57;9.52;;;33.30;99.90;;;;;;5032607;28;20033;-58
2023/07/18 09:55:26;;;;;;;15.05;10.13;;;33.20;99.90;;;;;;5032433;28;20121;-59
2023/07/18 09:57:55;;;;;;;11.48;9.77;;;33.10;99.90;;;;;;5032549;28;20391;-58
2023/07/18 10:00:22;;;;;;;11.30;8.38;;;33.00;99.90;;;;;;5032447;28;20044;-56
2023/07/18 10:02:49;;;;;;;11.15;9.35;;;33.40;99.90;;;;;;5032546;28;20117;-55
2023/07/18 10:05:16;;;;;;;14.40;9.85;;;33.90;99.90;;;;;;5032627;28;20379;-58
2023/07/18 10:07:43;;;;;;;10.95;8.73;;;34.30;99.90;;;;;;5032669;28;20036;-58
2023/07/18 10:10:10;;;;;;;11.20;8.90;;;33.70;99.90;;;;;;5032368;28;20099;-56
2023/07/18 10:12:37;;;;;;;10.65;9.45;;;33.70;99.90;;;;;;5032383;28;20509;-58
2023/07/18 10:15:04;;;;;;;10.05;9.02;;;33.20;99.90;;;;;;5032546;28;20037;-58
2023/07/18 10:17:34;;;;;;;15.07;9.30;;;33.00;99.90;;;;;;5031200;28;20454;-59
2023/07/18 10:20:11;;;;;;;14.55;9.52;;;33.00;99.90;;;;;;5032383;28;20061;-59
2023/07/18 10:22:44;;;;;;;12.18;9.02;;;33.20;99.90;;;;;;5035967;28;20507;-59
2023/07/18 10:25:11;;;;;;;13.95;9.70;;;33.50;99.90;;;;;;5038227;28;20455;-59
2023/07/18 10:27:42;;;;;;;12.00;9.73;;;33.30;99.90;;;;;;5035966;28;20025;-59
2023/07/18 10:30:10;;;;;;;13.32;8.57;;;33.20;99.90;;;;;;5035802;28;20483;-58
2023/07/18 10:32:39;;;;;;;12.82;10.13;;;33.70;99.90;;;;;;5035825;28;20116;-59
2023/07/18 10:35:12;;;;;;;10.88;8.90;;;33.30;99.90;;;;;;5035652;28;20472;-59
2023/07/18 10:37:42;;;;;;;;;;;33.10;99.90;;;;;;5036144;28;20022;-58
2023/07/18 10:40:08;;;;;;;9.32;8.52;;;33.70;99.90;;;;;;5034252;28;19905;-59
2023/07/18 10:42:34;;;;;;;16.45;10.27;;;34.10;99.90;;;;;;5035625;28;20033;-59
2023/07/18 10:45:04;;;;;;;11.65;9.45;;;33.90;99.90;;;;;;5035605;28;20022;-59
2023/07/18 10:47:31;;;;;;;13.60;9.60;;;33.60;99.90;;;;;;5035681;28;20037;-58
2023/07/18 10:49:57;;;;;;;10.90;9.85;;;33.40;99.90;;;;;;5035668;28;20037;-58
2023/07/18 10:52:23;;;;;;;13.65;10.50;;;33.70;99.90;;;;;;5035385;28;20043;-59
2023/07/18 10:54:59;;;;;;;15.05;10.00;;;33.70;99.90;;;;;;5035592;28;20100;-59
2023/07/18 10:57:29;;;;;;;14.00;10.20;;;34.10;99.90;;;;;;5022077;28;20036;-59
2023/07/18 10:59:55;;;;;;;10.50;9.50;;;34.20;99.90;;;;;;5035354;28;20438;-59
2023/07/18 11:02:22;;;;;;;11.27;8.93;;;34.00;99.90;;;;;;5035072;28;20017;-59
2023/07/18 11:04:51;;;;;;;12.82;9.82;;;34.20;99.90;;;;;;5035406;28;20533;-59
2023/07/18 11:07:17;;;;;;;10.10;8.45;;;34.60;99.90;;;;;;5035121;28;20080;-59
2023/07/18 11:09:43;;;;;;;12.93;9.13;;;34.70;99.90;;;;;;5033811;28;20029;-59
2023/07/18 11:12:18;;;;;;;12.63;9.35;;;34.70;99.90;;;;;;5033725;28;20403;-59
2023/07/18 11:14:46;;;;;;;10.35;9.20;;;35.00;99.90;;;;;;5033792;28;20042;-60
2023/07/18 11:17:19;;;;;;;9.32;8.43;;;35.30;99.90;;;;;;5034853;28;20029;-60
2023/07/18 11:19:46;;;;;;;11.18;10.23;;;35.30;99.90;;;;;;5034928;28;20053;-60
2023/07/18 11:22:13;;;;;;;10.55;9.40;;;35.10;99.90;;;;;;5034145;28;20040;-60
2023/07/18 11:24:40;;;;;;;10.27;9.25;;;35.20;99.90;;;;;;5034771;28;20025;-60
2023/07/18 11:27:14;;;;;;;16.13;9.90;;;35.00;99.90;;;;;;5031413;28;20029;-60
2023/07/18 11:29:40;;;;;;;11.52;9.32;;;34.90;99.90;;;;;;5034329;28;20030;-60
2023/07/18 11:32:06;;;;;;;12.05;9.65;;;35.20;99.90;;;;;;5034438;28;20021;-60
2023/07/18 11:34:32;;;;;;;14.98;11.20;;;36.90;99.90;;;;;;5033527;28;20047;-60
2023/07/18 11:36:58;;;;;;;18.10;11.57;;;40.00;99.90;;;;;;5033343;28;20054;-60
2023/07/18 11:39:28;;;;;;;13.50;11.30;;;40.90;99.90;;;;;;5033978;28;20029;-60
2023/07/18 11:42:08;;;;;;;13.85;9.55;;;40.70;99.90;;;;;;5034461;28;20099;-60
2023/07/18 11:44:34;;;;;;;14.60;11.05;;;41.10;99.90;;;;;;5034369;28;20083;-58
2023/07/18 11:47:00;;;;;;;12.70;9.63;;;41.10;99.90;;;;;;5034430;28;20029;-60
2023/07/18 11:49:35;;;;;;;15.60;11.65;;;42.60;99.90;;;;;;5034121;28;20029;-58
2023/07/18 11:52:03;;;;;;;11.40;10.38;;;43.60;99.90;;;;;;5034241;28;20025;-58
2023/07/18 11:54:29;;;;;;;11.80;10.43;;;44.40;99.90;;;;;;5034179;28;20036;-59
2023/07/18 11:56:55;;;;;;;11.95;9.90;;;45.70;99.90;;;;;;5034228;28;20044;-59
2023/07/18 11:59:21;;;;;;;12.13;10.07;;;45.60;99.90;;;;;;5033907;28;20053;-59
2023/07/18 12:01:47;;;;;;;12.02;10.85;;;45.10;99.90;;;;;;5034358;28;20029;-59
2023/07/18 12:04:14;;;;;;;13.90;10.55;;;44.20;99.90;;;;;;5034205;28;20048;-60
2023/07/18 12:06:41;;;;;;;14.50;10.25;;;43.40;99.90;;;;;;5034288;28;20137;-60
2023/07/18 12:09:07;;;;;;;12.02;10.10;;;43.00;99.90;;;;;;5033631;28;20065;-59
2023/07/18 12:11:33;;;;;;;11.60;10.38;;;43.20;99.90;;;;;;5033723;28;20471;-59
2023/07/18 12:14:00;;;;;;;11.77;10.65;;;44.30;99.90;;;;;;5032626;28;20025;-59
2023/07/18 12:16:25;;;;;;;13.00;11.43;;;43.40;99.90;;;;;;5033402;28;20030;-59
2023/07/18 12:18:51;;;;;;;14.20;11.05;;;44.00;99.90;;;;;;5032561;28;20075;-59
2023/07/18 12:21:16;;;;;;;14.63;11.27;;;43.90;99.90;;;;;;5033655;28;20022;-59
2023/07/18 12:23:42;;;;;;;12.50;10.23;;;41.20;99.90;;;;;;5033654;28;20021;-59
2023/07/18 12:26:08;;;;;;;13.48;11.90;;;39.10;99.90;;;;;;5033534;28;20044;-59
2023/07/18 12:28:33;;;;;;;13.05;11.88;;;39.60;99.90;;;;;;5033675;28;20467;-59
2023/07/18 12:30:59;;;;;;;12.20;10.65;;;39.80;99.90;;;;;;5033737;28;20049;-59
2023/07/18 12:33:25;;;;;;;12.20;11.00;;;40.20;99.90;;;;;;5033302;28;20017;-59
2023/07/18 12:35:50;;;;;;;12.25;10.35;;;40.30;99.90;;;;;;5033547;28;20037;-59